CSH1111 ZSPD-ZSPD
Flight info
| Callsign | CSH1111 |
|---|---|
| Flight time | 1h 5m |
| Altitude | 3000 |
| Route | PD501 DCT PD504 DCT PD203 DCT SS402 DCT PD408 DCT PD207 DCT PD511 |
| Aircraft | B738/M-SDE2E3FGHIRWXY/LB1 |
Departure
| Time | 2026-05-05 08:32 |
|---|---|
| Airport | Shanghai Pudong International Airport (ZSPD) |
Arrival
| Time | 2026-05-05 09:37 |
|---|---|
| Airport | Shanghai Pudong International Airport (ZSPD) |
| Time | Latitude | Longitude | Altitude | Speed | Heading |
|---|---|---|---|---|---|
| 2026-05-05 08:19 | 31.15478 | 121.79287 | 21 ft | 0 kts | 251° |
| 2026-05-05 08:23 | 31.15479 | 121.79290 | 21 ft | 2 kts | 251° |
| 2026-05-05 08:23 | 31.15484 | 121.79307 | 21 ft | 2 kts | 251° |
| 2026-05-05 08:23 | 31.15488 | 121.79323 | 21 ft | 2 kts | 251° |
| 2026-05-05 08:24 | 31.15493 | 121.79340 | 21 ft | 2 kts | 251° |
| 2026-05-05 08:24 | 31.15498 | 121.79356 | 21 ft | 2 kts | 266° |
| 2026-05-05 08:24 | 31.15496 | 121.79374 | 21 ft | 2 kts | 288° |
| 2026-05-05 08:24 | 31.15489 | 121.79390 | 21 ft | 2 kts | 309° |
| 2026-05-05 08:25 | 31.15478 | 121.79401 | 21 ft | 2 kts | 331° |
| 2026-05-05 08:25 | 31.15471 | 121.79405 | 21 ft | 0 kts | 342° |
| 2026-05-05 08:25 | 31.15465 | 121.79407 | 21 ft | 0 kts | 343° |
| 2026-05-05 08:27 | 31.15466 | 121.79407 | 21 ft | 0 kts | 343° |
| 2026-05-05 08:27 | 31.15504 | 121.79393 | 21 ft | 11 kts | 342° |
| 2026-05-05 08:27 | 31.15599 | 121.79358 | 21 ft | 15 kts | 342° |
| 2026-05-05 08:27 | 31.15669 | 121.79318 | 21 ft | 9 kts | 307° |
| 2026-05-05 08:28 | 31.15675 | 121.79238 | 21 ft | 10 kts | 257° |
| 2026-05-05 08:28 | 31.15652 | 121.79156 | 21 ft | 10 kts | 252° |
| 2026-05-05 08:28 | 31.15628 | 121.79069 | 21 ft | 11 kts | 253° |
| 2026-05-05 08:28 | 31.15675 | 121.78990 | 21 ft | 15 kts | 339° |
| 2026-05-05 08:29 | 31.15782 | 121.78949 | 21 ft | 16 kts | 342° |
| 2026-05-05 08:29 | 31.15900 | 121.78904 | 21 ft | 19 kts | 342° |
| 2026-05-05 08:29 | 31.16037 | 121.78852 | 21 ft | 21 kts | 342° |
| 2026-05-05 08:30 | 31.16144 | 121.78735 | 21 ft | 6 kts | 250° |
| 2026-05-05 08:30 | 31.16130 | 121.78685 | 21 ft | 7 kts | 252° |
| 2026-05-05 08:30 | 31.16090 | 121.78622 | 21 ft | 10 kts | 198° |
| 2026-05-05 08:30 | 31.16045 | 121.78629 | 21 ft | 0 kts | 161° |
| 2026-05-05 08:31 | 31.16044 | 121.78629 | 21 ft | 0 kts | 161° |
| 2026-05-05 08:31 | 31.16002 | 121.78646 | 21 ft | 22 kts | 161° |
| 2026-05-05 08:31 | 31.15629 | 121.78786 | 21 ft | 92 kts | 162° |
| 2026-05-05 08:31 | 31.14801 | 121.79102 | 38 ft | 153 kts | 162° |
| 2026-05-05 08:32 | 31.13724 | 121.79518 | 512 ft | 172 kts | 161° |
| 2026-05-05 08:32 | 31.12576 | 121.80048 | 1191 ft | 185 kts | 157° |
| 2026-05-05 08:32 | 31.11412 | 121.80555 | 1993 ft | 183 kts | 167° |
| 2026-05-05 08:32 | 31.10093 | 121.80846 | 2408 ft | 202 kts | 169° |
| 2026-05-05 08:33 | 31.08664 | 121.81226 | 2811 ft | 224 kts | 166° |
| 2026-05-05 08:33 | 31.07064 | 121.81750 | 3021 ft | 246 kts | 164° |
| 2026-05-05 08:33 | 31.05369 | 121.82209 | 3002 ft | 254 kts | 178° |
| 2026-05-05 08:33 | 31.03631 | 121.81857 | 3019 ft | 255 kts | 202° |
| 2026-05-05 08:34 | 31.02203 | 121.80621 | 2996 ft | 258 kts | 230° |
| 2026-05-05 08:34 | 31.01388 | 121.78756 | 3003 ft | 262 kts | 249° |
| 2026-05-05 08:34 | 31.00846 | 121.76736 | 3010 ft | 262 kts | 251° |
| 2026-05-05 08:34 | 31.00377 | 121.74671 | 3000 ft | 263 kts | 258° |
| 2026-05-05 08:35 | 31.00407 | 121.72542 | 2971 ft | 268 kts | 284° |
| 2026-05-05 08:35 | 31.01365 | 121.70735 | 2993 ft | 264 kts | 317° |
| 2026-05-05 08:35 | 31.02917 | 121.69707 | 3007 ft | 250 kts | 340° |
| 2026-05-05 08:35 | 31.04555 | 121.69164 | 2980 ft | 235 kts | 346° |
| 2026-05-05 08:36 | 31.06093 | 121.68736 | 2985 ft | 223 kts | 346° |
| 2026-05-05 08:36 | 31.07600 | 121.68298 | 2993 ft | 222 kts | 345° |
| 2026-05-05 08:36 | 31.09103 | 121.67837 | 2990 ft | 224 kts | 345° |
| 2026-05-05 08:36 | 31.10613 | 121.67362 | 2986 ft | 223 kts | 344° |
| 2026-05-05 08:37 | 31.12117 | 121.66887 | 2988 ft | 223 kts | 345° |
| 2026-05-05 08:37 | 31.13629 | 121.66409 | 2988 ft | 224 kts | 344° |
| 2026-05-05 08:37 | 31.15132 | 121.65934 | 2989 ft | 225 kts | 345° |
| 2026-05-05 08:37 | 31.16641 | 121.65457 | 2995 ft | 224 kts | 345° |
| 2026-05-05 08:38 | 31.18140 | 121.64983 | 2989 ft | 223 kts | 345° |
| 2026-05-05 08:38 | 31.19659 | 121.64503 | 2988 ft | 226 kts | 345° |
| 2026-05-05 08:38 | 31.21169 | 121.64025 | 2985 ft | 224 kts | 345° |
| 2026-05-05 08:38 | 31.22675 | 121.63549 | 2986 ft | 224 kts | 345° |
| 2026-05-05 08:39 | 31.24185 | 121.63071 | 2989 ft | 223 kts | 345° |
| 2026-05-05 08:39 | 31.25682 | 121.62584 | 2987 ft | 224 kts | 343° |
| 2026-05-05 08:39 | 31.27181 | 121.62028 | 3003 ft | 223 kts | 341° |
| 2026-05-05 08:39 | 31.28634 | 121.61462 | 2979 ft | 217 kts | 341° |
| 2026-05-05 08:40 | 31.30019 | 121.60927 | 2975 ft | 203 kts | 341° |
| 2026-05-05 08:40 | 31.31362 | 121.60414 | 3007 ft | 201 kts | 341° |
| 2026-05-05 08:40 | 31.32692 | 121.59907 | 2992 ft | 202 kts | 341° |
| 2026-05-05 08:40 | 31.34040 | 121.59396 | 2989 ft | 202 kts | 341° |
| 2026-05-05 08:41 | 31.35374 | 121.58888 | 2988 ft | 201 kts | 341° |
| 2026-05-05 08:41 | 31.36716 | 121.58431 | 2978 ft | 201 kts | 349° |
| 2026-05-05 08:41 | 31.38096 | 121.58476 | 2999 ft | 197 kts | 18° |
| 2026-05-05 08:41 | 31.39297 | 121.59168 | 2997 ft | 188 kts | 37° |
| 2026-05-05 08:42 | 31.40271 | 121.60169 | 2996 ft | 185 kts | 54° |
| 2026-05-05 08:42 | 31.40859 | 121.61471 | 2999 ft | 181 kts | 78° |
| 2026-05-05 08:42 | 31.41125 | 121.62905 | 3003 ft | 181 kts | 83° |
| 2026-05-05 08:42 | 31.41383 | 121.64354 | 2955 ft | 181 kts | 81° |
| 2026-05-05 08:43 | 31.41652 | 121.65798 | 2960 ft | 181 kts | 83° |
| 2026-05-05 08:43 | 31.41661 | 121.67228 | 2949 ft | 175 kts | 110° |
| 2026-05-05 08:43 | 31.41024 | 121.68410 | 2953 ft | 172 kts | 139° |
| 2026-05-05 08:43 | 31.40014 | 121.69142 | 2953 ft | 169 kts | 161° |
| 2026-05-05 08:44 | 31.38878 | 121.69534 | 2957 ft | 175 kts | 164° |
| 2026-05-05 08:44 | 31.37696 | 121.69963 | 2946 ft | 180 kts | 163° |
| 2026-05-05 08:44 | 31.36499 | 121.70418 | 2945 ft | 178 kts | 162° |
| 2026-05-05 08:44 | 31.35358 | 121.70852 | 2944 ft | 161 kts | 163° |
| 2026-05-05 08:45 | 31.34352 | 121.71233 | 2940 ft | 144 kts | 162° |
| 2026-05-05 08:45 | 31.33435 | 121.71578 | 2972 ft | 134 kts | 163° |
| 2026-05-05 08:45 | 31.32534 | 121.71918 | 2964 ft | 135 kts | 163° |
| 2026-05-05 08:45 | 31.31638 | 121.72257 | 2958 ft | 136 kts | 163° |
| 2026-05-05 08:46 | 31.30728 | 121.72600 | 2951 ft | 137 kts | 163° |
| 2026-05-05 08:46 | 31.29821 | 121.72941 | 2839 ft | 137 kts | 163° |
| 2026-05-05 08:46 | 31.28921 | 121.73281 | 2645 ft | 132 kts | 163° |
| 2026-05-05 08:46 | 31.28047 | 121.73611 | 2485 ft | 134 kts | 163° |
| 2026-05-05 08:47 | 31.27148 | 121.73949 | 2310 ft | 137 kts | 163° |
| 2026-05-05 08:47 | 31.26230 | 121.74294 | 2120 ft | 139 kts | 163° |
| 2026-05-05 08:47 | 31.25330 | 121.74628 | 1930 ft | 132 kts | 166° |
| 2026-05-05 08:47 | 31.24467 | 121.74931 | 1733 ft | 131 kts | 163° |
| 2026-05-05 08:48 | 31.23592 | 121.75284 | 1469 ft | 132 kts | 161° |
| 2026-05-05 08:48 | 31.22727 | 121.75646 | 1234 ft | 133 kts | 162° |
| 2026-05-05 08:48 | 31.21861 | 121.75957 | 1035 ft | 128 kts | 166° |
| 2026-05-05 08:48 | 31.21006 | 121.76220 | 861 ft | 124 kts | 162° |
| 2026-05-05 08:49 | 31.20210 | 121.76555 | 714 ft | 120 kts | 161° |
| 2026-05-05 08:49 | 31.19413 | 121.76856 | 612 ft | 121 kts | 163° |
| 2026-05-05 08:49 | 31.18597 | 121.77165 | 564 ft | 124 kts | 161° |
| 2026-05-05 08:49 | 31.17755 | 121.77480 | 468 ft | 128 kts | 162° |
| 2026-05-05 08:50 | 31.16891 | 121.77811 | 352 ft | 130 kts | 162° |
| 2026-05-05 08:50 | 31.16030 | 121.78137 | 186 ft | 131 kts | 162° |
| 2026-05-05 08:50 | 31.15168 | 121.78461 | 49 ft | 129 kts | 162° |
| 2026-05-05 08:50 | 31.14350 | 121.78764 | 21 ft | 122 kts | 159° |
| 2026-05-05 08:51 | 31.13418 | 121.79112 | 489 ft | 138 kts | 164° |
| 2026-05-05 08:51 | 31.12397 | 121.79517 | 535 ft | 175 kts | 161° |
| 2026-05-05 08:51 | 31.11147 | 121.79990 | 738 ft | 203 kts | 163° |
| 2026-05-05 08:51 | 31.09641 | 121.80128 | 1136 ft | 228 kts | 192° |
| 2026-05-05 08:52 | 31.08291 | 121.79338 | 2303 ft | 219 kts | 219° |
| 2026-05-05 08:52 | 31.07366 | 121.77943 | 2844 ft | 225 kts | 242° |
| 2026-05-05 08:52 | 31.06968 | 121.76145 | 2948 ft | 227 kts | 265° |
| 2026-05-05 08:52 | 31.07149 | 121.74347 | 2963 ft | 227 kts | 284° |
| 2026-05-05 08:53 | 31.07935 | 121.72730 | 2968 ft | 231 kts | 311° |
| 2026-05-05 08:53 | 31.09106 | 121.71434 | 2962 ft | 233 kts | 317° |
| 2026-05-05 08:53 | 31.10314 | 121.70171 | 2962 ft | 232 kts | 316° |
| 2026-05-05 08:53 | 31.11489 | 121.68889 | 2962 ft | 233 kts | 314° |
| 2026-05-05 08:54 | 31.12667 | 121.67561 | 2960 ft | 232 kts | 314° |
| 2026-05-05 08:54 | 31.13843 | 121.66211 | 3060 ft | 248 kts | 314° |
| 2026-05-05 08:54 | 31.15111 | 121.64734 | 3145 ft | 268 kts | 313° |
| 2026-05-05 08:54 | 31.16434 | 121.63179 | 3169 ft | 262 kts | 313° |
| 2026-05-05 08:55 | 31.17676 | 121.61717 | 3162 ft | 247 kts | 313° |
| 2026-05-05 08:55 | 31.18852 | 121.60334 | 3093 ft | 237 kts | 313° |
| 2026-05-05 08:55 | 31.20014 | 121.58992 | 2983 ft | 231 kts | 317° |
| 2026-05-05 08:55 | 31.21336 | 121.57891 | 2902 ft | 241 kts | 330° |
| 2026-05-05 08:56 | 31.22887 | 121.57079 | 2850 ft | 241 kts | 340° |
| 2026-05-05 08:56 | 31.24438 | 121.56458 | 2773 ft | 234 kts | 342° |
| 2026-05-05 08:56 | 31.25981 | 121.55864 | 2765 ft | 234 kts | 341° |
| 2026-05-05 08:56 | 31.27556 | 121.55341 | 2686 ft | 232 kts | 349° |
| 2026-05-05 08:57 | 31.29137 | 121.55170 | 2540 ft | 226 kts | 2° |
| 2026-05-05 08:57 | 31.30672 | 121.55391 | 2390 ft | 220 kts | 15° |
| 2026-05-05 08:57 | 31.32117 | 121.55993 | 2219 ft | 215 kts | 30° |
| 2026-05-05 08:57 | 31.33354 | 121.56922 | 2059 ft | 210 kts | 44° |
| 2026-05-05 08:58 | 31.34355 | 121.58134 | 1928 ft | 207 kts | 57° |
| 2026-05-05 08:58 | 31.35081 | 121.59570 | 1761 ft | 203 kts | 71° |
| 2026-05-05 08:58 | 31.35513 | 121.61150 | 1779 ft | 205 kts | 83° |
| 2026-05-05 08:58 | 31.35755 | 121.62744 | 1774 ft | 196 kts | 84° |
| 2026-05-05 08:59 | 31.35890 | 121.64271 | 1781 ft | 183 kts | 96° |
| 2026-05-05 08:59 | 31.35754 | 121.65741 | 1804 ft | 180 kts | 104° |
| 2026-05-05 08:59 | 31.35556 | 121.67197 | 1789 ft | 181 kts | 104° |
| 2026-05-05 08:59 | 31.35368 | 121.68645 | 1785 ft | 179 kts | 103° |
| 2026-05-05 09:00 | 31.35153 | 121.70073 | 1787 ft | 178 kts | 112° |
| 2026-05-05 09:00 | 31.34404 | 121.71118 | 1706 ft | 169 kts | 155° |
| 2026-05-05 09:00 | 31.33293 | 121.71562 | 1719 ft | 170 kts | 163° |
| 2026-05-05 09:00 | 31.32168 | 121.72013 | 1741 ft | 168 kts | 161° |
| 2026-05-05 09:01 | 31.31061 | 121.72460 | 1786 ft | 165 kts | 162° |
| 2026-05-05 09:01 | 31.30018 | 121.72860 | 1777 ft | 152 kts | 163° |
| 2026-05-05 09:01 | 31.29026 | 121.73235 | 1727 ft | 149 kts | 163° |
| 2026-05-05 09:01 | 31.28043 | 121.73609 | 1640 ft | 143 kts | 163° |
| 2026-05-05 09:02 | 31.27115 | 121.73959 | 1485 ft | 137 kts | 163° |
| 2026-05-05 09:02 | 31.26215 | 121.74296 | 1295 ft | 133 kts | 163° |
| 2026-05-05 09:02 | 31.25342 | 121.74625 | 1086 ft | 132 kts | 163° |
| 2026-05-05 09:02 | 31.24472 | 121.74952 | 871 ft | 132 kts | 163° |
| 2026-05-05 09:03 | 31.23600 | 121.75284 | 688 ft | 126 kts | 162° |
| 2026-05-05 09:03 | 31.22765 | 121.75600 | 568 ft | 126 kts | 162° |
| 2026-05-05 09:03 | 31.21934 | 121.75912 | 557 ft | 124 kts | 162° |
| 2026-05-05 09:03 | 31.21097 | 121.76225 | 693 ft | 127 kts | 163° |
| 2026-05-05 09:04 | 31.20262 | 121.76543 | 823 ft | 126 kts | 162° |
| 2026-05-05 09:04 | 31.19416 | 121.76860 | 885 ft | 129 kts | 163° |
| 2026-05-05 09:04 | 31.18566 | 121.77180 | 701 ft | 130 kts | 162° |
| 2026-05-05 09:04 | 31.17689 | 121.77510 | 502 ft | 130 kts | 163° |
| 2026-05-05 09:05 | 31.16826 | 121.77834 | 281 ft | 126 kts | 162° |
| 2026-05-05 09:05 | 31.16007 | 121.78140 | 140 ft | 122 kts | 162° |
| 2026-05-05 09:05 | 31.15208 | 121.78439 | 24 ft | 115 kts | 162° |
| 2026-05-05 09:05 | 31.14399 | 121.78745 | 21 ft | 144 kts | 162° |
| 2026-05-05 09:06 | 31.13309 | 121.79148 | 255 ft | 170 kts | 163° |
| 2026-05-05 09:06 | 31.12224 | 121.79513 | 1009 ft | 162 kts | 166° |
| 2026-05-05 09:06 | 31.11144 | 121.79842 | 1630 ft | 163 kts | 167° |
| 2026-05-05 09:06 | 31.10082 | 121.80184 | 2419 ft | 157 kts | 165° |
| 2026-05-05 09:07 | 31.09075 | 121.80586 | 3086 ft | 159 kts | 160° |
| 2026-05-05 09:07 | 31.08009 | 121.81024 | 3668 ft | 166 kts | 175° |
| 2026-05-05 09:07 | 31.06945 | 121.80589 | 4226 ft | 174 kts | 225° |
| 2026-05-05 09:07 | 31.06433 | 121.79321 | 4885 ft | 178 kts | 252° |
| 2026-05-05 09:08 | 31.06089 | 121.77918 | 5426 ft | 188 kts | 252° |
| 2026-05-05 09:08 | 31.05678 | 121.76393 | 5719 ft | 199 kts | 251° |
| 2026-05-05 09:08 | 31.05247 | 121.74831 | 5811 ft | 207 kts | 251° |
| 2026-05-05 09:08 | 31.04780 | 121.73140 | 5573 ft | 231 kts | 251° |
| 2026-05-05 09:09 | 31.04295 | 121.71354 | 5270 ft | 233 kts | 252° |
| 2026-05-05 09:09 | 31.03812 | 121.69546 | 4982 ft | 233 kts | 251° |
| 2026-05-05 09:09 | 31.03338 | 121.67750 | 4661 ft | 233 kts | 251° |
| 2026-05-05 09:09 | 31.02929 | 121.65898 | 4283 ft | 242 kts | 263° |
| 2026-05-05 09:10 | 31.03269 | 121.63982 | 3876 ft | 251 kts | 299° |
| 2026-05-05 09:10 | 31.04561 | 121.62611 | 3475 ft | 257 kts | 334° |
| 2026-05-05 09:10 | 31.06315 | 121.62154 | 3126 ft | 259 kts | 356° |
| 2026-05-05 09:10 | 31.08088 | 121.62048 | 2974 ft | 250 kts | 356° |
| 2026-05-05 09:11 | 31.09768 | 121.61877 | 2949 ft | 237 kts | 354° |
| 2026-05-05 09:11 | 31.11389 | 121.61647 | 2961 ft | 234 kts | 353° |
| 2026-05-05 09:11 | 31.13007 | 121.61391 | 2958 ft | 235 kts | 352° |
| 2026-05-05 09:11 | 31.14640 | 121.61130 | 2951 ft | 233 kts | 352° |
| 2026-05-05 09:12 | 31.16236 | 121.60877 | 2959 ft | 234 kts | 352° |
| 2026-05-05 09:12 | 31.17865 | 121.60619 | 2960 ft | 233 kts | 353° |
| 2026-05-05 09:12 | 31.19458 | 121.60368 | 2964 ft | 232 kts | 352° |
| 2026-05-05 09:12 | 31.21087 | 121.60111 | 2975 ft | 234 kts | 352° |
| 2026-05-05 09:13 | 31.22692 | 121.59858 | 2966 ft | 233 kts | 352° |
| 2026-05-05 09:13 | 31.24295 | 121.59605 | 2966 ft | 233 kts | 352° |
| 2026-05-05 09:13 | 31.25917 | 121.59348 | 2942 ft | 233 kts | 352° |
| 2026-05-05 09:13 | 31.27537 | 121.59092 | 2952 ft | 235 kts | 352° |
| 2026-05-05 09:14 | 31.29145 | 121.58837 | 2951 ft | 233 kts | 353° |
| 2026-05-05 09:14 | 31.30757 | 121.58582 | 2965 ft | 234 kts | 352° |
| 2026-05-05 09:14 | 31.32376 | 121.58326 | 2966 ft | 234 kts | 353° |
| 2026-05-05 09:14 | 31.33997 | 121.58070 | 2950 ft | 233 kts | 353° |
| 2026-05-05 09:15 | 31.35595 | 121.57816 | 2962 ft | 225 kts | 352° |
| 2026-05-05 09:15 | 31.37110 | 121.57587 | 2945 ft | 217 kts | 355° |
| 2026-05-05 09:15 | 31.38616 | 121.57696 | 2934 ft | 218 kts | 20° |
| 2026-05-05 09:15 | 31.39840 | 121.58648 | 2951 ft | 211 kts | 53° |
| 2026-05-05 09:16 | 31.40566 | 121.60128 | 2959 ft | 209 kts | 72° |
| 2026-05-05 09:16 | 31.40955 | 121.61759 | 2952 ft | 207 kts | 81° |
| 2026-05-05 09:16 | 31.41237 | 121.63416 | 2956 ft | 207 kts | 82° |
| 2026-05-05 09:16 | 31.41522 | 121.65064 | 2960 ft | 207 kts | 82° |
| 2026-05-05 09:17 | 31.41656 | 121.66724 | 2952 ft | 204 kts | 99° |
| 2026-05-05 09:17 | 31.41117 | 121.68185 | 2947 ft | 193 kts | 136° |
| 2026-05-05 09:17 | 31.40029 | 121.69002 | 2948 ft | 180 kts | 159° |
| 2026-05-05 09:17 | 31.38844 | 121.69475 | 2952 ft | 180 kts | 163° |
| 2026-05-05 09:18 | 31.37653 | 121.69917 | 2953 ft | 180 kts | 163° |
| 2026-05-05 09:18 | 31.36464 | 121.70372 | 2950 ft | 178 kts | 162° |
| 2026-05-05 09:18 | 31.35304 | 121.70818 | 2954 ft | 174 kts | 163° |
| 2026-05-05 09:18 | 31.34139 | 121.71243 | 2953 ft | 175 kts | 163° |
| 2026-05-05 09:19 | 31.32985 | 121.71692 | 2960 ft | 171 kts | 161° |
| 2026-05-05 09:19 | 31.31900 | 121.72136 | 2958 ft | 164 kts | 162° |
| 2026-05-05 09:19 | 31.30819 | 121.72555 | 2951 ft | 164 kts | 163° |
| 2026-05-05 09:19 | 31.29718 | 121.72974 | 2905 ft | 166 kts | 162° |
| 2026-05-05 09:20 | 31.28627 | 121.73389 | 2692 ft | 164 kts | 163° |
| 2026-05-05 09:20 | 31.27558 | 121.73792 | 2469 ft | 156 kts | 163° |
| 2026-05-05 09:20 | 31.26555 | 121.74172 | 2257 ft | 145 kts | 163° |
| 2026-05-05 09:20 | 31.25633 | 121.74522 | 2063 ft | 134 kts | 163° |
| 2026-05-05 09:21 | 31.24774 | 121.74842 | 1899 ft | 127 kts | 163° |
| 2026-05-05 09:21 | 31.23941 | 121.75159 | 1787 ft | 125 kts | 163° |
| 2026-05-05 09:21 | 31.23110 | 121.75473 | 1549 ft | 124 kts | 163° |
| 2026-05-05 09:21 | 31.22293 | 121.75779 | 1396 ft | 124 kts | 163° |
| 2026-05-05 09:22 | 31.21450 | 121.76091 | 1228 ft | 125 kts | 163° |
| 2026-05-05 09:22 | 31.20617 | 121.76408 | 1074 ft | 126 kts | 163° |
| 2026-05-05 09:22 | 31.19778 | 121.76722 | 900 ft | 126 kts | 162° |
| 2026-05-05 09:22 | 31.18904 | 121.77063 | 822 ft | 134 kts | 161° |
| 2026-05-05 09:23 | 31.18043 | 121.77389 | 587 ft | 130 kts | 164° |
| 2026-05-05 09:23 | 31.17182 | 121.77693 | 396 ft | 129 kts | 162° |
| 2026-05-05 09:23 | 31.16329 | 121.78019 | 195 ft | 129 kts | 162° |
| 2026-05-05 09:23 | 31.15490 | 121.78333 | 66 ft | 123 kts | 162° |
| 2026-05-05 09:24 | 31.14699 | 121.78632 | 21 ft | 115 kts | 161° |
| 2026-05-05 09:24 | 31.13889 | 121.78938 | 21 ft | 141 kts | 162° |
| 2026-05-05 09:24 | 31.12827 | 121.79336 | 207 ft | 168 kts | 164° |
| 2026-05-05 09:24 | 31.11716 | 121.79731 | 618 ft | 174 kts | 160° |
| 2026-05-05 09:25 | 31.10628 | 121.80093 | 1226 ft | 160 kts | 168° |
| 2026-05-05 09:25 | 31.09522 | 121.80329 | 1639 ft | 178 kts | 164° |
| 2026-05-05 09:25 | 31.08267 | 121.80357 | 2175 ft | 187 kts | 194° |
| 2026-05-05 09:25 | 31.07063 | 121.79594 | 2421 ft | 213 kts | 224° |
| 2026-05-05 09:26 | 31.06334 | 121.78050 | 2981 ft | 235 kts | 252° |
| 2026-05-05 09:26 | 31.06023 | 121.76057 | 2428 ft | 272 kts | 262° |
| 2026-05-05 09:26 | 31.06234 | 121.73830 | 1693 ft | 287 kts | 293° |
| 2026-05-05 09:26 | 31.07259 | 121.72033 | 2267 ft | 260 kts | 307° |
| 2026-05-05 09:27 | 31.08401 | 121.70435 | 2281 ft | 254 kts | 308° |
| 2026-05-05 09:27 | 31.09542 | 121.68874 | 2271 ft | 250 kts | 308° |
| 2026-05-05 09:27 | 31.10669 | 121.67335 | 2270 ft | 248 kts | 308° |
| 2026-05-05 09:27 | 31.11807 | 121.65781 | 2271 ft | 253 kts | 308° |
| 2026-05-05 09:28 | 31.12937 | 121.64237 | 2271 ft | 253 kts | 308° |
| 2026-05-05 09:28 | 31.14089 | 121.62665 | 2269 ft | 251 kts | 308° |
| 2026-05-05 09:28 | 31.15221 | 121.61137 | 2291 ft | 248 kts | 313° |
| 2026-05-05 09:28 | 31.16712 | 121.60208 | 2457 ft | 238 kts | 353° |
| 2026-05-05 09:29 | 31.18347 | 121.60206 | 2379 ft | 241 kts | 6° |
| 2026-05-05 09:29 | 31.20058 | 121.60381 | 2234 ft | 247 kts | 6° |
| 2026-05-05 09:29 | 31.21769 | 121.60566 | 2189 ft | 248 kts | 7° |
| 2026-05-05 09:29 | 31.23541 | 121.60758 | 1923 ft | 259 kts | 7° |
| 2026-05-05 09:30 | 31.25324 | 121.60877 | 2079 ft | 249 kts | 358° |
| 2026-05-05 09:30 | 31.26987 | 121.60674 | 2273 ft | 241 kts | 354° |
| 2026-05-05 09:30 | 31.28660 | 121.60629 | 2397 ft | 237 kts | 12° |
| 2026-05-05 09:30 | 31.30154 | 121.61433 | 2513 ft | 242 kts | 45° |
| 2026-05-05 09:31 | 31.31086 | 121.63013 | 2889 ft | 241 kts | 72° |
| 2026-05-05 09:31 | 31.31595 | 121.64945 | 3078 ft | 252 kts | 77° |
| 2026-05-05 09:31 | 31.32034 | 121.66912 | 3079 ft | 252 kts | 78° |
| 2026-05-05 09:31 | 31.32399 | 121.68859 | 3126 ft | 232 kts | 84° |
| 2026-05-05 09:32 | 31.32573 | 121.70631 | 3404 ft | 206 kts | 87° |
| 2026-05-05 09:32 | 31.32360 | 121.72289 | 3059 ft | 208 kts | 126° |
| 2026-05-05 09:32 | 31.31304 | 121.73425 | 2695 ft | 211 kts | 151° |
| 2026-05-05 09:32 | 31.30060 | 121.74040 | 2817 ft | 190 kts | 161° |
| 2026-05-05 09:33 | 31.28757 | 121.74371 | 2440 ft | 192 kts | 179° |
| 2026-05-05 09:33 | 31.27469 | 121.74432 | 2066 ft | 187 kts | 173° |
| 2026-05-05 09:33 | 31.26261 | 121.74676 | 1968 ft | 162 kts | 169° |
| 2026-05-05 09:33 | 31.25212 | 121.74931 | 1837 ft | 145 kts | 168° |
| 2026-05-05 09:34 | 31.24268 | 121.75204 | 1656 ft | 132 kts | 165° |
| 2026-05-05 09:34 | 31.23442 | 121.75482 | 1579 ft | 115 kts | 165° |
| 2026-05-05 09:34 | 31.22693 | 121.75735 | 1450 ft | 112 kts | 165° |
| 2026-05-05 09:34 | 31.21893 | 121.76018 | 1413 ft | 130 kts | 163° |
| 2026-05-05 09:35 | 31.21011 | 121.76331 | 1203 ft | 133 kts | 165° |
| 2026-05-05 09:35 | 31.19294 | 121.76945 | 778 ft | 119 kts | 164° |
| 2026-05-05 09:35 | 31.18508 | 121.77211 | 634 ft | 116 kts | 163° |
| 2026-05-05 09:36 | 31.17718 | 121.77483 | 465 ft | 120 kts | 162° |
| 2026-05-05 09:36 | 31.16910 | 121.77795 | 346 ft | 120 kts | 162° |
| 2026-05-05 09:36 | 31.16105 | 121.78098 | 200 ft | 125 kts | 162° |
| 2026-05-05 09:36 | 31.15275 | 121.78411 | 67 ft | 124 kts | 162° |
| 2026-05-05 09:37 | 31.14487 | 121.78709 | 21 ft | 100 kts | 162° |
| 2026-05-05 09:37 | 31.14075 | 121.78867 | 21 ft | 31 kts | 162° |
| 2026-05-05 09:37 | 31.13933 | 121.78944 | 21 ft | 16 kts | 144° |
| 2026-05-05 09:37 | 31.13846 | 121.79031 | 21 ft | 17 kts | 136° |
| 2026-05-05 09:38 | 31.13760 | 121.79134 | 21 ft | 18 kts | 134° |
| 2026-05-05 09:38 | 31.13676 | 121.79219 | 21 ft | 15 kts | 146° |
| 2026-05-05 09:38 | 31.13602 | 121.79266 | 21 ft | 9 kts | 123° |
| 2026-05-05 09:38 | 31.13609 | 121.79345 | 21 ft | 10 kts | 70° |
| 2026-05-05 09:39 | 31.13622 | 121.79388 | 21 ft | 0 kts | 72° |
| 2026-05-05 09:39 | 31.13626 | 121.79404 | 21 ft | 8 kts | 72° |
| 2026-05-05 09:39 | 31.13657 | 121.79517 | 21 ft | 16 kts | 72° |
| 2026-05-05 09:39 | 31.13699 | 121.79663 | 21 ft | 23 kts | 72° |
| 2026-05-05 09:40 | 31.13745 | 121.79827 | 21 ft | 18 kts | 72° |
| 2026-05-05 09:40 | 31.13774 | 121.79935 | 21 ft | 8 kts | 72° |
| 2026-05-05 09:40 | 31.13791 | 121.80003 | 21 ft | 9 kts | 86° |
| 2026-05-05 09:40 | 31.13777 | 121.80051 | 21 ft | 4 kts | 111° |
| 2026-05-05 09:41 | 31.13778 | 121.80092 | 21 ft | 5 kts | 77° |
| 2026-05-05 09:41 | 31.13789 | 121.80132 | 21 ft | 4 kts | 72° |
| 2026-05-05 09:41 | 31.13794 | 121.80151 | 21 ft | 1 kts | 72° |
| 2026-05-05 09:41 | 31.13796 | 121.80158 | 21 ft | 0 kts | 72° |